Aeroporto :
LOGIN :

Iscrizione | Disclaimer

   EN    FR    IT 

 










Sommario :    VFR   VFR Marginale   IFR   IFR Intensivo   IFR Molto Intensivo
Visibilità : 
Base nubi : 
>= 8 km
>= 3000ft
5 / 8 km
1000 / 3000 ft
1500m / 5 km
500 / 1000 ft
800 / 1500m
200 / 500 ft
< 800m
< 200 ft
Simboli :   Temporali  Nebbia  Neve Forte  Precipitazioni Forti  Vento > 20 kt
SIGMETs :   Varie  Temporali  Ghiacco  Turbolenza  Onda orograficha  Ceneri Vulcaniche






- Altitudine del aeroporto : 489 ft
- Codice IATA : GDN


EPGD - Gdansk

ULTIMO METAR :
  • 251530Z 26008KT 9999 BKN041 07/M01 Q0991

METARs OBSOLETI :
  • 251500Z 25012KT 9999 FEW041 SCT047 07/M01 Q0991
  • 251430Z 26012KT 230V290 9999 FEW039 08/M01 Q0991
  • 251400Z 26015KT 9999 FEW043 08/M00 Q0991
  • 251330Z 25016KT 9999 FEW036 SCT046 08/00 Q0991

TAF TAF EPGD
Valido dal 25 a 12 ore il 26 a 12 ore UTC


251130Z 2512/2612 26018KT 9999 SCT030
PROB40
TEMPO 2512/2516 27021G32KT SCT030TCU
BECMG 2515/2518 20012KT



MetMap, La meteo Aeronautica in un colpo d'occhio ! - Copyright ORBIFLY Dicembre 2007 - Disclaimer

ORBIFLY MET'MAP TEAM :

Programmazione e sviluppo : Alexandra Zaïnal
Concezione : Baudouin d'Aumeries
Aiuto per la programmazione : Marc-Olivier Méhu
Supporto tecnico e logistico : Manuel Goepfert
Aiuto per la traduzione : Arnaldo La Scala

Contatto : metmap@orbifly.com




FONTI E CREDITI :

   NOAA